Terminal Aerodrome Forecast
Issued by NWS

Home | Current Version | Previous Version | Text Only | Print | Product List | Glossary On
Versions: 1 2 3 4 5 6 7 8 9 10 11 12 13 14 15 16 17
000
FTUS43 KOAX 060927 AAB
TAFSNY
TAF AMD
KSNY 060927Z 0609/0706 01012KT P6SM BKN010
      TEMPO 0610/0614 2SM -RA BR OVC005
     FM061500 35018KT P6SM OVC015
     FM061900 04013KT 4SM -SHRA OVC025
     FM070100 13006KT P6SM OVC035=

USA.gov is the U.S. government's official web portal to all federal, state and local government web resources and services.